Time;durP1;ratioP1;P1;durP2;ratioP2;P2;SDS_P1;SDS_P2;PMS_P1;PMS_P2;Temp;Humidity;BMP_temperature;BMP_pressure;BME280_temperature;BME280_humidity;BME280_pressure;Samples;Min_cycle;Max_cycle;Signal;HPM_P1;HPM_P2
2023/01/29 00:00:34;;;;;;;0.30;0.30;;;;;;;;;;5003791;28;20034;-65
2023/01/29 00:03:00;;;;;;;0.22;0.20;;;;;;;;;;5005418;28;20495;-64
2023/01/29 00:05:27;;;;;;;0.55;0.55;;;;;;;;;;5004969;28;20761;-63
2023/01/29 00:07:55;;;;;;;0.20;0.20;;;;;;;;;;5006099;28;20136;-66
2023/01/29 00:10:21;;;;;;;0.20;0.20;;;;;;;;;;5004692;28;20038;-65
2023/01/29 00:12:48;;;;;;;0.20;0.20;;;;;;;;;;5003989;28;20041;-65
2023/01/29 00:15:15;;;;;;;0.20;0.20;;;;;;;;;;4998773;28;20065;-65
2023/01/29 00:17:41;;;;;;;0.30;0.30;;;;;;;;;;5001082;28;20056;-64
2023/01/29 00:20:09;;;;;;;0.20;0.20;;;;;;;;;;5006441;28;20568;-62
2023/01/29 00:22:35;;;;;;;2.38;0.68;;;;;;;;;;5020797;28;20470;-63
2023/01/29 00:25:02;;;;;;;0.20;0.20;;;;;;;;;;5013604;28;20056;-63
2023/01/29 00:27:29;;;;;;;0.60;0.60;;;;;;;;;;5014867;28;20056;-64
2023/01/29 00:30:08;;;;;;;0.20;0.20;;;;;;;;;;5016346;28;20076;-65
2023/01/29 00:32:35;;;;;;;0.20;0.20;;;;;;;;;;5008203;28;20668;-61
2023/01/29 00:35:01;;;;;;;0.20;0.20;;;;;;;;;;5010825;28;20046;-65
2023/01/29 00:37:28;;;;;;;0.20;0.20;;;;;;;;;;5015888;28;20116;-65
2023/01/29 00:40:15;;;;;;;0.20;0.20;;;;;;;;;;5016193;28;20058;-64
2023/01/29 00:45:28;;;;;;;0.20;0.20;;;;;;;;;;5011886;28;20096;-65
2023/01/29 00:47:55;;;;;;;5.57;0.95;;;;;;;;;;5004403;28;22438;-62
2023/01/29 00:50:22;;;;;;;0.20;0.20;;;;;;;;;;5005881;28;20042;-64
2023/01/29 00:52:50;;;;;;;0.20;0.20;;;;;;;;;;5002437;28;20109;-63
2023/01/29 00:55:17;;;;;;;0.20;0.20;;;;;;;;;;5008464;28;20062;-65
2023/01/29 00:57:44;;;;;;;0.20;0.20;;;;;;;;;;5001956;28;20639;-62
2023/01/29 01:00:12;;;;;;;0.20;0.20;;;;;;;;;;5004382;28;20030;-61
2023/01/29 01:05:24;;;;;;;0.30;0.30;;;;;;;;;;5003357;28;20092;-64
2023/01/29 01:07:53;;;;;;;0.25;0.25;;;;;;;;;;5004577;28;20045;-64
2023/01/29 01:10:22;;;;;;;0.20;0.20;;;;;;;;;;5005548;28;20052;-66
2023/01/29 01:12:56;;;;;;;0.20;0.20;;;;;;;;;;5006938;28;20069;-62
2023/01/29 01:15:23;;;;;;;0.20;0.20;;;;;;;;;;5003809;28;20056;-64
2023/01/29 01:17:54;;;;;;;0.20;0.20;;;;;;;;;;5006115;28;20042;-64
2023/01/29 01:20:22;;;;;;;0.20;0.20;;;;;;;;;;5010640;28;20043;-62
2023/01/29 01:22:49;;;;;;;0.32;0.32;;;;;;;;;;5008984;28;20149;-64
2023/01/29 01:25:17;;;;;;;0.30;0.20;;;;;;;;;;5008704;28;20454;-63
2023/01/29 01:27:44;;;;;;;0.20;0.20;;;;;;;;;;5008021;28;20052;-65
2023/01/29 01:30:13;;;;;;;0.20;0.20;;;;;;;;;;5005469;28;20100;-62
2023/01/29 01:32:40;;;;;;;0.20;0.20;;;;;;;;;;5016199;28;20470;-63
2023/01/29 01:35:07;;;;;;;0.20;0.20;;;;;;;;;;5006557;28;20057;-63
2023/01/29 01:37:36;;;;;;;0.82;0.82;;;;;;;;;;5004412;28;20100;-64
2023/01/29 01:40:04;;;;;;;0.20;0.20;;;;;;;;;;5009967;28;20414;-65
2023/01/29 01:42:31;;;;;;;0.20;0.20;;;;;;;;;;5006104;28;20060;-63
2023/01/29 01:45:03;;;;;;;0.20;0.20;;;;;;;;;;5010973;28;20045;-66
2023/01/29 01:47:32;;;;;;;0.20;0.20;;;;;;;;;;5008857;28;20123;-65
2023/01/29 01:50:01;;;;;;;0.20;0.20;;;;;;;;;;5020399;28;20101;-65
2023/01/29 01:52:29;;;;;;;0.50;0.50;;;;;;;;;;5024326;28;20116;-66
2023/01/29 01:54:57;;;;;;;0.20;0.20;;;;;;;;;;5025901;28;20081;-64
2023/01/29 01:57:25;;;;;;;0.30;0.30;;;;;;;;;;5012219;28;20060;-65
2023/01/29 01:59:55;;;;;;;0.20;0.20;;;;;;;;;;5008511;28;20096;-65
2023/01/29 02:10:45;;;;;;;2.08;1.70;;;;;;;;;;5022604;28;20109;-63
2023/01/29 02:13:11;;;;;;;0.20;0.20;;;;;;;;;;5017850;28;20060;-66
2023/01/29 02:15:40;;;;;;;0.20;0.20;;;;;;;;;;5005962;28;20099;-64
2023/01/29 02:18:25;;;;;;;0.55;0.55;;;;;;;;;;4996283;28;20041;-63
2023/01/29 02:21:08;;;;;;;0.30;0.30;;;;;;;;;;4997362;28;20046;-65
2023/01/29 02:23:56;;;;;;;0.45;0.30;;;;;;;;;;5001126;28;20050;-66
2023/01/29 02:26:23;;;;;;;0.22;0.22;;;;;;;;;;5001798;28;20045;-65
2023/01/29 02:29:21;;;;;;;0.20;0.20;;;;;;;;;;5001307;28;20038;-65
2023/01/29 02:31:58;;;;;;;0.28;0.28;;;;;;;;;;4998580;28;20046;-65
2023/01/29 02:34:31;;;;;;;0.20;0.20;;;;;;;;;;5001088;28;20516;-65
2023/01/29 02:37:07;;;;;;;0.45;0.30;;;;;;;;;;5005328;28;20045;-64
2023/01/29 02:39:36;;;;;;;0.20;0.20;;;;;;;;;;5004662;28;20050;-65
2023/01/29 02:42:10;;;;;;;0.20;0.20;;;;;;;;;;4990330;28;20865;-64
2023/01/29 02:44:47;;;;;;;0.63;0.55;;;;;;;;;;4997430;28;20068;-65
2023/01/29 02:47:22;;;;;;;0.30;0.30;;;;;;;;;;4992482;28;20046;-64
2023/01/29 02:49:52;;;;;;;0.75;0.75;;;;;;;;;;5008447;28;20128;-65
2023/01/29 02:52:37;;;;;;;0.20;0.20;;;;;;;;;;5020392;28;20072;-63
2023/01/29 02:55:12;;;;;;;0.30;0.30;;;;;;;;;;5014689;28;20060;-63
2023/01/29 02:57:41;;;;;;;0.20;0.20;;;;;;;;;;5019047;28;20559;-64
2023/01/29 03:00:11;;;;;;;3.47;1.75;;;;;;;;;;5020824;28;20131;-63
2023/01/29 03:02:45;;;;;;;0.30;0.30;;;;;;;;;;5025645;28;20045;-64
2023/01/29 03:05:14;;;;;;;0.20;0.20;;;;;;;;;;5025725;28;20046;-64
2023/01/29 03:07:45;;;;;;;0.20;0.20;;;;;;;;;;5028847;28;20498;-63
2023/01/29 03:10:18;;;;;;;0.20;0.20;;;;;;;;;;5026074;28;21016;-62
2023/01/29 03:12:46;;;;;;;0.50;0.50;;;;;;;;;;5016282;28;20053;-62
2023/01/29 03:15:19;;;;;;;0.20;0.20;;;;;;;;;;5017626;28;20095;-63
2023/01/29 03:17:52;;;;;;;0.38;0.30;;;;;;;;;;5024141;28;20056;-62
2023/01/29 03:20:24;;;;;;;0.30;0.30;;;;;;;;;;5026212;28;20108;-64
2023/01/29 03:22:52;;;;;;;0.20;0.20;;;;;;;;;;5024855;28;21970;-63
2023/01/29 03:33:49;;;;;;;0.50;0.50;;;;;;;;;;5031602;28;20124;-61
2023/01/29 03:36:23;;;;;;;0.30;0.30;;;;;;;;;;5029956;28;20061;-62
2023/01/29 03:38:49;;;;;;;0.20;0.20;;;;;;;;;;5024456;28;20117;-63
2023/01/29 03:41:25;;;;;;;0.28;0.28;;;;;;;;;;5026205;28;20061;-63
2023/01/29 03:43:55;;;;;;;0.25;0.25;;;;;;;;;;5022592;28;20658;-60
2023/01/29 03:46:28;;;;;;;0.20;0.20;;;;;;;;;;5019901;28;20042;-63
2023/01/29 03:49:21;;;;;;;0.65;0.32;;;;;;;;;;5018205;28;20050;-66
2023/01/29 03:51:55;;;;;;;0.20;0.20;;;;;;;;;;5006801;28;20398;-63
2023/01/29 03:54:33;;;;;;;0.30;0.30;;;;;;;;;;5010657;28;20054;-63
2023/01/29 03:57:22;;;;;;;0.20;0.20;;;;;;;;;;5011854;28;20038;-64
2023/01/29 04:00:01;;;;;;;0.20;0.20;;;;;;;;;;4939936;28;20049;-64
2023/01/29 04:02:35;;;;;;;0.57;0.40;;;;;;;;;;4939641;28;20054;-64
2023/01/29 04:05:08;;;;;;;0.25;0.25;;;;;;;;;;4937066;28;20071;-64
2023/01/29 04:07:35;;;;;;;1.13;0.90;;;;;;;;;;4938040;28;20047;-63
2023/01/29 04:10:07;;;;;;;0.20;0.20;;;;;;;;;;4942987;28;20047;-63
2023/01/29 04:12:43;;;;;;;0.28;0.20;;;;;;;;;;4944837;28;20039;-64
2023/01/29 04:15:14;;;;;;;0.20;0.20;;;;;;;;;;4940425;28;20105;-63
2023/01/29 04:17:42;;;;;;;0.20;0.20;;;;;;;;;;4940822;28;20162;-65
2023/01/29 04:20:09;;;;;;;0.20;0.20;;;;;;;;;;4941686;28;20151;-64
2023/01/29 04:22:37;;;;;;;3.13;2.92;;;;;;;;;;4935940;28;20051;-63
2023/01/29 04:25:08;;;;;;;0.20;0.20;;;;;;;;;;4938617;28;20074;-63
2023/01/29 04:27:43;;;;;;;0.20;0.20;;;;;;;;;;4935205;28;20340;-63
2023/01/29 04:30:23;;;;;;;0.20;0.20;;;;;;;;;;4950755;28;20498;-62
2023/01/29 04:33:08;;;;;;;0.35;0.35;;;;;;;;;;5011016;28;20079;-60
2023/01/29 04:35:45;;;;;;;0.20;0.20;;;;;;;;;;5006051;28;20042;-60
2023/01/29 04:38:32;;;;;;;0.40;0.40;;;;;;;;;;5005396;28;20631;-60
2023/01/29 04:41:17;;;;;;;0.20;0.20;;;;;;;;;;5008850;28;20069;-64
2023/01/29 04:43:47;;;;;;;0.65;0.55;;;;;;;;;;5011490;28;20076;-62
2023/01/29 04:46:14;;;;;;;0.43;0.40;;;;;;;;;;5024230;28;20163;-63
2023/01/29 04:48:49;;;;;;;0.38;0.30;;;;;;;;;;5024182;28;20057;-61
2023/01/29 04:51:30;;;;;;;0.55;0.35;;;;;;;;;;5023029;28;20120;-62
2023/01/29 04:54:01;;;;;;;0.20;0.20;;;;;;;;;;5017695;28;20041;-64
2023/01/29 04:56:36;;;;;;;0.30;0.30;;;;;;;;;;5010815;28;20037;-62
2023/01/29 04:59:05;;;;;;;1.38;1.30;;;;;;;;;;5022959;28;20068;-62
2023/01/29 05:01:33;;;;;;;0.40;0.40;;;;;;;;;;5020491;28;20034;-64
2023/01/29 05:04:02;;;;;;;0.30;0.30;;;;;;;;;;5019835;28;20211;-64
2023/01/29 05:06:30;;;;;;;0.38;0.30;;;;;;;;;;5020824;28;20040;-63
2023/01/29 05:08:57;;;;;;;0.20;0.20;;;;;;;;;;5024512;28;20037;-62
2023/01/29 05:11:25;;;;;;;0.30;0.30;;;;;;;;;;5022639;28;20139;-62
2023/01/29 05:13:53;;;;;;;0.20;0.20;;;;;;;;;;5018367;28;20601;-63
2023/01/29 05:16:26;;;;;;;0.22;0.22;;;;;;;;;;5022358;28;20052;-61
2023/01/29 05:18:53;;;;;;;1.33;1.25;;;;;;;;;;5020856;28;20104;-62
2023/01/29 05:21:21;;;;;;;1.13;0.40;;;;;;;;;;5017591;28;20497;-65
2023/01/29 05:24:06;;;;;;;0.40;0.40;;;;;;;;;;5018002;28;20089;-65
2023/01/29 05:29:18;;;;;;;0.30;0.30;;;;;;;;;;5019787;28;20052;-64
2023/01/29 05:31:45;;;;;;;0.30;0.30;;;;;;;;;;5018406;28;20043;-63
2023/01/29 05:34:11;;;;;;;0.55;0.50;;;;;;;;;;5019552;28;20395;-61
2023/01/29 05:36:38;;;;;;;0.20;0.20;;;;;;;;;;5020444;28;20563;-65
2023/01/29 05:39:05;;;;;;;0.20;0.20;;;;;;;;;;5020449;28;20065;-63
2023/01/29 05:41:31;;;;;;;0.98;0.50;;;;;;;;;;5019485;28;20048;-64
2023/01/29 05:43:58;;;;;;;0.93;0.50;;;;;;;;;;5020294;28;20046;-66
2023/01/29 05:46:25;;;;;;;1.73;0.50;;;;;;;;;;5021520;28;20034;-63
2023/01/29 05:48:54;;;;;;;0.30;0.30;;;;;;;;;;5015642;28;20089;-62
2023/01/29 05:51:21;;;;;;;0.35;0.30;;;;;;;;;;5005623;28;20621;-62
2023/01/29 05:53:47;;;;;;;0.20;0.20;;;;;;;;;;5026095;28;20064;-63
2023/01/29 05:56:14;;;;;;;1.10;0.57;;;;;;;;;;5025194;28;20049;-63
2023/01/29 05:58:40;;;;;;;0.63;0.40;;;;;;;;;;5022796;28;20050;-64
2023/01/29 06:01:18;;;;;;;0.40;0.40;;;;;;;;;;5003830;28;20038;-64
2023/01/29 06:03:45;;;;;;;0.20;0.20;;;;;;;;;;5021225;28;20041;-64
2023/01/29 06:06:12;;;;;;;1.98;0.65;;;;;;;;;;5023350;28;20037;-64
2023/01/29 06:08:39;;;;;;;0.40;0.30;;;;;;;;;;5026356;28;20101;-63
2023/01/29 06:11:10;;;;;;;0.38;0.30;;;;;;;;;;5021338;28;20407;-65
2023/01/29 06:13:37;;;;;;;0.20;0.20;;;;;;;;;;5024088;28;20588;-63
2023/01/29 06:16:07;;;;;;;0.47;0.35;;;;;;;;;;5024961;28;20041;-62
2023/01/29 06:18:35;;;;;;;0.20;0.20;;;;;;;;;;5022479;28;20616;-65
2023/01/29 06:21:05;;;;;;;0.57;0.40;;;;;;;;;;5022422;28;20572;-63
2023/01/29 06:23:32;;;;;;;3.22;0.73;;;;;;;;;;5024508;28;20696;-63
2023/01/29 06:26:02;;;;;;;0.30;0.30;;;;;;;;;;5024398;28;20037;-65
2023/01/29 06:28:29;;;;;;;0.90;0.50;;;;;;;;;;5023960;28;20043;-64
2023/01/29 06:31:00;;;;;;;1.45;0.30;;;;;;;;;;5022273;28;20045;-64
2023/01/29 06:33:26;;;;;;;0.30;0.30;;;;;;;;;;5020602;28;21678;-64
2023/01/29 06:36:00;;;;;;;0.38;0.30;;;;;;;;;;5025098;28;20055;-64
2023/01/29 06:38:26;;;;;;;;;;;;;;;;;;5025313;28;20045;-63
2023/01/29 06:40:53;;;;;;;0.20;0.20;;;;;;;;;;5023363;28;20635;-61
2023/01/29 06:43:20;;;;;;;2.08;1.02;;;;;;;;;;5022746;28;20147;-63
2023/01/29 06:45:48;;;;;;;0.38;0.38;;;;;;;;;;5024348;28;20053;-63
2023/01/29 06:48:14;;;;;;;0.40;0.40;;;;;;;;;;5024173;28;20493;-63
2023/01/29 06:50:41;;;;;;;0.75;0.75;;;;;;;;;;5022364;28;20876;-64
2023/01/29 06:53:08;;;;;;;0.20;0.20;;;;;;;;;;5023103;28;20037;-63
2023/01/29 06:55:34;;;;;;;0.40;0.30;;;;;;;;;;5026563;28;20083;-63
2023/01/29 06:58:05;;;;;;;0.30;0.30;;;;;;;;;;5026587;28;20041;-63
2023/01/29 07:00:32;;;;;;;0.20;0.20;;;;;;;;;;5023489;28;20045;-63
2023/01/29 07:02:59;;;;;;;0.45;0.45;;;;;;;;;;5026730;28;20041;-63
2023/01/29 07:05:25;;;;;;;0.30;0.30;;;;;;;;;;5021573;28;20065;-63
2023/01/29 07:07:52;;;;;;;0.68;0.30;;;;;;;;;;5024426;28;20094;-64
2023/01/29 07:10:19;;;;;;;0.20;0.20;;;;;;;;;;5025191;28;20456;-63
2023/01/29 07:12:46;;;;;;;0.30;0.30;;;;;;;;;;5020659;28;20041;-64
2023/01/29 07:15:12;;;;;;;0.70;0.55;;;;;;;;;;5021932;28;20045;-63
2023/01/29 07:17:39;;;;;;;0.32;0.20;;;;;;;;;;5023290;28;20517;-62
2023/01/29 07:20:06;;;;;;;0.20;0.20;;;;;;;;;;5023156;28;20091;-63
2023/01/29 07:22:33;;;;;;;0.20;0.20;;;;;;;;;;5022891;28;20045;-63
2023/01/29 07:25:00;;;;;;;0.20;0.20;;;;;;;;;;5026854;28;20041;-64
2023/01/29 07:27:27;;;;;;;0.40;0.40;;;;;;;;;;5024722;28;20469;-64
2023/01/29 07:29:54;;;;;;;0.25;0.25;;;;;;;;;;5009145;28;20053;-65
2023/01/29 07:32:20;;;;;;;0.20;0.20;;;;;;;;;;5025311;28;20041;-63
2023/01/29 07:34:47;;;;;;;0.20;0.20;;;;;;;;;;5022218;28;20053;-64
2023/01/29 07:37:13;;;;;;;0.22;0.20;;;;;;;;;;5023912;28;20386;-64
2023/01/29 07:39:40;;;;;;;0.30;0.30;;;;;;;;;;5013759;28;20061;-64
2023/01/29 07:42:07;;;;;;;0.20;0.20;;;;;;;;;;5022986;28;20083;-65
2023/01/29 07:44:34;;;;;;;0.40;0.30;;;;;;;;;;5021613;28;20529;-63
2023/01/29 07:47:00;;;;;;;0.52;0.43;;;;;;;;;;4996810;28;20090;-63
2023/01/29 07:49:27;;;;;;;0.30;0.30;;;;;;;;;;5025008;28;21784;-64
2023/01/29 07:51:54;;;;;;;0.22;0.22;;;;;;;;;;5028077;28;20184;-64
2023/01/29 07:54:20;;;;;;;0.20;0.20;;;;;;;;;;5025700;28;20052;-61
2023/01/29 07:56:47;;;;;;;1.45;0.63;;;;;;;;;;5031410;28;20082;-65
2023/01/29 07:59:13;;;;;;;0.20;0.20;;;;;;;;;;5024061;28;20053;-65
2023/01/29 08:01:40;;;;;;;0.25;0.22;;;;;;;;;;5024499;28;20048;-62
2023/01/29 08:04:07;;;;;;;0.20;0.20;;;;;;;;;;5025902;28;20038;-65
2023/01/29 08:06:33;;;;;;;0.35;0.35;;;;;;;;;;5028613;28;20060;-65
2023/01/29 08:09:01;;;;;;;0.20;0.20;;;;;;;;;;5034036;28;20048;-64
2023/01/29 08:11:27;;;;;;;0.20;0.20;;;;;;;;;;5016010;28;20120;-66
2023/01/29 08:13:55;;;;;;;0.20;0.20;;;;;;;;;;5035440;28;20080;-63
2023/01/29 08:16:22;;;;;;;0.20;0.20;;;;;;;;;;5018184;28;20056;-64
2023/01/29 08:18:48;;;;;;;1.02;0.60;;;;;;;;;;5021320;28;20435;-64
2023/01/29 08:21:15;;;;;;;0.73;0.38;;;;;;;;;;5019374;28;20045;-64
2023/01/29 08:24:02;;;;;;;0.38;0.32;;;;;;;;;;5022125;28;20042;-62
2023/01/29 08:26:29;;;;;;;0.68;0.50;;;;;;;;;;5001199;28;20042;-63
2023/01/29 08:28:56;;;;;;;0.40;0.40;;;;;;;;;;5004689;28;20050;-64
2023/01/29 08:31:22;;;;;;;0.30;0.30;;;;;;;;;;5005142;28;20060;-64
2023/01/29 08:33:49;;;;;;;5.63;0.73;;;;;;;;;;5009800;28;20133;-65
2023/01/29 08:36:16;;;;;;;0.32;0.30;;;;;;;;;;5011745;28;20050;-63
2023/01/29 08:38:43;;;;;;;1.13;0.47;;;;;;;;;;4999780;28;20475;-65
2023/01/29 08:41:09;;;;;;;2.05;1.95;;;;;;;;;;4988370;28;20038;-64
2023/01/29 08:43:37;;;;;;;0.55;0.40;;;;;;;;;;5002253;28;20054;-63
2023/01/29 08:46:05;;;;;;;0.20;0.20;;;;;;;;;;5000094;28;20038;-64
2023/01/29 08:48:32;;;;;;;0.80;0.40;;;;;;;;;;5000921;28;20031;-63
2023/01/29 08:50:59;;;;;;;0.30;0.30;;;;;;;;;;4999270;28;20050;-66
2023/01/29 08:53:26;;;;;;;0.20;0.20;;;;;;;;;;4980830;28;21163;-65
2023/01/29 08:55:52;;;;;;;0.50;0.50;;;;;;;;;;4983936;28;20073;-63
2023/01/29 08:58:19;;;;;;;0.17;0.17;;;;;;;;;;5005198;28;20180;-65
2023/01/29 09:00:46;;;;;;;0.20;0.20;;;;;;;;;;4985006;28;20775;-66
2023/01/29 09:03:13;;;;;;;0.20;0.20;;;;;;;;;;5015681;28;20065;-67
2023/01/29 09:05:41;;;;;;;0.20;0.20;;;;;;;;;;5028659;28;20073;-64
2023/01/29 09:08:08;;;;;;;0.28;0.28;;;;;;;;;;5017392;28;20041;-67
2023/01/29 09:10:35;;;;;;;0.20;0.20;;;;;;;;;;5026081;28;20053;-66
2023/01/29 09:13:02;;;;;;;1.33;0.70;;;;;;;;;;5012697;28;20060;-65
2023/01/29 09:15:29;;;;;;;0.22;0.22;;;;;;;;;;5023770;28;20056;-64
2023/01/29 09:17:55;;;;;;;0.30;0.30;;;;;;;;;;5022507;28;20052;-66
2023/01/29 09:20:42;;;;;;;0.20;0.20;;;;;;;;;;4991472;28;20042;-65
2023/01/29 09:23:09;;;;;;;0.60;0.55;;;;;;;;;;4994927;28;20228;-65
2023/01/29 09:25:37;;;;;;;0.20;0.20;;;;;;;;;;4993490;28;20157;-65
2023/01/29 09:28:06;;;;;;;1.55;0.65;;;;;;;;;;4977924;28;20054;-65
2023/01/29 09:30:33;;;;;;;0.20;0.20;;;;;;;;;;4969746;28;20037;-64
2023/01/29 09:33:01;;;;;;;0.20;0.20;;;;;;;;;;4998271;28;20038;-64
2023/01/29 09:35:28;;;;;;;1.02;0.22;;;;;;;;;;4987224;28;20058;-63
2023/01/29 09:37:55;;;;;;;0.20;0.20;;;;;;;;;;4975472;28;20077;-66
2023/01/29 09:40:26;;;;;;;0.20;0.20;;;;;;;;;;4983206;28;20042;-66
2023/01/29 09:42:58;;;;;;;0.60;0.60;;;;;;;;;;4973408;28;20038;-66
2023/01/29 09:45:27;;;;;;;0.80;0.60;;;;;;;;;;4974000;28;20179;-66
2023/01/29 09:47:56;;;;;;;0.20;0.20;;;;;;;;;;5003035;28;20117;-66
2023/01/29 09:50:37;;;;;;;0.28;0.28;;;;;;;;;;4998325;28;20036;-65
2023/01/29 09:53:18;;;;;;;0.30;0.30;;;;;;;;;;5011068;28;20054;-63
2023/01/29 09:55:58;;;;;;;0.98;0.43;;;;;;;;;;5007115;28;20061;-63
2023/01/29 09:58:25;;;;;;;0.35;0.35;;;;;;;;;;5004570;28;20034;-63
2023/01/29 10:01:30;;;;;;;0.40;0.30;;;;;;;;;;4999255;28;20076;-62
2023/01/29 10:04:07;;;;;;;1.23;0.70;;;;;;;;;;4983004;28;20129;-67
2023/01/29 10:06:46;;;;;;;0.43;0.30;;;;;;;;;;4995108;28;20148;-64
2023/01/29 10:09:13;;;;;;;0.20;0.20;;;;;;;;;;4993079;28;20053;-65
2023/01/29 10:11:47;;;;;;;0.73;0.50;;;;;;;;;;5012567;28;20041;-64
2023/01/29 10:14:18;;;;;;;0.20;0.20;;;;;;;;;;5008760;28;21921;-64
2023/01/29 10:16:59;;;;;;;0.20;0.20;;;;;;;;;;5011068;28;20517;-64
2023/01/29 10:19:28;;;;;;;0.45;0.40;;;;;;;;;;5013388;28;20053;-65
2023/01/29 10:22:06;;;;;;;1.20;0.40;;;;;;;;;;5022845;28;20057;-64
2023/01/29 10:24:45;;;;;;;0.20;0.20;;;;;;;;;;5039997;28;20032;-66
2023/01/29 10:27:14;;;;;;;0.20;0.20;;;;;;;;;;5034079;28;20077;-66
2023/01/29 10:29:43;;;;;;;0.60;0.30;;;;;;;;;;5018644;28;20041;-66
2023/01/29 10:32:13;;;;;;;1.75;0.50;;;;;;;;;;5036594;28;20042;-62
2023/01/29 10:35:00;;;;;;;0.80;0.30;;;;;;;;;;5023570;28;20425;-65
2023/01/29 10:37:34;;;;;;;0.20;0.20;;;;;;;;;;5035273;28;20383;-64
2023/01/29 10:40:01;;;;;;;0.20;0.20;;;;;;;;;;5002125;28;20507;-63
2023/01/29 10:42:37;;;;;;;0.25;0.25;;;;;;;;;;4989132;28;20039;-63
2023/01/29 10:45:06;;;;;;;0.30;0.30;;;;;;;;;;4991248;28;20085;-62
2023/01/29 10:47:36;;;;;;;0.47;0.40;;;;;;;;;;4989601;28;20054;-64
2023/01/29 10:50:14;;;;;;;0.30;0.30;;;;;;;;;;4985561;28;20053;-61
2023/01/29 10:52:59;;;;;;;0.20;0.20;;;;;;;;;;5003276;28;20045;-65
2023/01/29 10:55:39;;;;;;;0.30;0.30;;;;;;;;;;5001334;28;20049;-66
2023/01/29 10:58:14;;;;;;;0.20;0.20;;;;;;;;;;4997535;28;20057;-64
2023/01/29 11:00:40;;;;;;;0.20;0.20;;;;;;;;;;4992776;28;20042;-65
2023/01/29 11:03:17;;;;;;;0.30;0.30;;;;;;;;;;4990972;28;20045;-67
2023/01/29 11:05:52;;;;;;;0.47;0.47;;;;;;;;;;4991477;28;20915;-65
2023/01/29 11:08:26;;;;;;;0.30;0.30;;;;;;;;;;4992928;28;20046;-62
2023/01/29 11:11:07;;;;;;;0.30;0.30;;;;;;;;;;5019334;28;20058;-66
2023/01/29 11:13:53;;;;;;;0.30;0.30;;;;;;;;;;4997033;28;20366;-64
2023/01/29 11:16:20;;;;;;;0.63;0.40;;;;;;;;;;4989960;28;20069;-65
2023/01/29 11:18:53;;;;;;;0.20;0.20;;;;;;;;;;4995334;28;20559;-63
2023/01/29 11:21:19;;;;;;;0.20;0.20;;;;;;;;;;4994560;28;20037;-62
2023/01/29 11:23:46;;;;;;;0.20;0.20;;;;;;;;;;4993921;28;20084;-66
2023/01/29 11:26:17;;;;;;;0.65;0.30;;;;;;;;;;4993789;28;20116;-62
2023/01/29 11:28:45;;;;;;;0.20;0.20;;;;;;;;;;4982119;28;20038;-64
2023/01/29 11:31:19;;;;;;;0.20;0.20;;;;;;;;;;4994675;28;20134;-64
2023/01/29 11:33:47;;;;;;;0.20;0.20;;;;;;;;;;4992793;28;21000;-64
2023/01/29 11:36:31;;;;;;;0.40;0.20;;;;;;;;;;4996469;28;20043;-65
2023/01/29 11:39:18;;;;;;;0.32;0.25;;;;;;;;;;4994760;28;20569;-64
2023/01/29 11:41:48;;;;;;;0.20;0.20;;;;;;;;;;4991142;28;20034;-63
2023/01/29 11:44:19;;;;;;;0.20;0.20;;;;;;;;;;5007665;28;20809;-64
2023/01/29 11:46:46;;;;;;;1.60;0.50;;;;;;;;;;4999145;28;20516;-63
2023/01/29 11:49:21;;;;;;;0.25;0.22;;;;;;;;;;4996577;28;20049;-64
2023/01/29 11:52:01;;;;;;;0.35;0.30;;;;;;;;;;4996679;28;20031;-62
2023/01/29 11:54:39;;;;;;;0.20;0.20;;;;;;;;;;5007809;28;20607;-63
2023/01/29 11:57:15;;;;;;;0.20;0.20;;;;;;;;;;4997422;28;20184;-64
2023/01/29 11:59:47;;;;;;;0.20;0.20;;;;;;;;;;5005022;28;20038;-63
2023/01/29 12:02:23;;;;;;;0.20;0.20;;;;;;;;;;4995415;28;20030;-63
2023/01/29 12:04:50;;;;;;;0.20;0.20;;;;;;;;;;5013703;28;20439;-64
2023/01/29 12:07:18;;;;;;;0.20;0.20;;;;;;;;;;5008744;28;20042;-66
2023/01/29 12:10:03;;;;;;;0.30;0.30;;;;;;;;;;5001715;28;20038;-63
2023/01/29 12:12:31;;;;;;;0.20;0.20;;;;;;;;;;5005935;28;20038;-61
2023/01/29 12:15:18;;;;;;;0.20;0.20;;;;;;;;;;4993487;28;20125;-62
2023/01/29 12:17:49;;;;;;;0.20;0.20;;;;;;;;;;4992810;28;20049;-61
2023/01/29 12:20:20;;;;;;;0.20;0.20;;;;;;;;;;4995534;28;20053;-63
2023/01/29 12:22:56;;;;;;;0.30;0.30;;;;;;;;;;5001779;28;20046;-59
2023/01/29 12:25:40;;;;;;;0.25;0.25;;;;;;;;;;5010138;28;20050;-61
2023/01/29 12:28:10;;;;;;;0.35;0.20;;;;;;;;;;5005522;28;20082;-64
2023/01/29 12:30:48;;;;;;;0.22;0.22;;;;;;;;;;5021417;28;20073;-63
2023/01/29 12:33:24;;;;;;;0.20;0.20;;;;;;;;;;5016816;28;20038;-62
2023/01/29 12:35:54;;;;;;;0.20;0.20;;;;;;;;;;5019519;28;20072;-64
2023/01/29 12:38:22;;;;;;;0.30;0.30;;;;;;;;;;5014984;28;20038;-65
2023/01/29 12:40:54;;;;;;;0.20;0.20;;;;;;;;;;5010002;28;20080;-64
2023/01/29 12:43:27;;;;;;;0.30;0.30;;;;;;;;;;5009935;28;20165;-64
2023/01/29 12:45:55;;;;;;;0.52;0.40;;;;;;;;;;5000407;28;20066;-65
2023/01/29 12:48:33;;;;;;;0.28;0.28;;;;;;;;;;5001913;28;20246;-64
2023/01/29 12:51:06;;;;;;;0.30;0.30;;;;;;;;;;5020093;28;20610;-63
2023/01/29 12:53:35;;;;;;;0.25;0.25;;;;;;;;;;5001867;28;20039;-63
2023/01/29 12:56:13;;;;;;;0.50;0.50;;;;;;;;;;4996006;28;20112;-62
2023/01/29 12:58:46;;;;;;;0.20;0.20;;;;;;;;;;4991131;28;20117;-64
2023/01/29 13:01:13;;;;;;;;;;;;;;;;;;4995922;28;20038;-64
2023/01/29 13:03:46;;;;;;;0.20;0.20;;;;;;;;;;4992620;28;20223;-65
2023/01/29 13:06:16;;;;;;;0.30;0.30;;;;;;;;;;4995055;28;20035;-64
2023/01/29 13:08:50;;;;;;;0.32;0.30;;;;;;;;;;5011425;28;20073;-62
2023/01/29 13:11:32;;;;;;;0.47;0.30;;;;;;;;;;4996859;28;20043;-63
2023/01/29 13:14:06;;;;;;;1.02;1.02;;;;;;;;;;5001487;28;20066;-62
2023/01/29 13:16:42;;;;;;;0.30;0.30;;;;;;;;;;5002576;28;20128;-65
2023/01/29 13:19:25;;;;;;;0.40;0.35;;;;;;;;;;4998199;28;20510;-64
2023/01/29 13:21:53;;;;;;;0.20;0.20;;;;;;;;;;4993885;28;20050;-65
2023/01/29 13:24:23;;;;;;;0.20;0.20;;;;;;;;;;4990133;28;20042;-65
2023/01/29 13:26:50;;;;;;;0.20;0.20;;;;;;;;;;4999954;28;20215;-62
2023/01/29 13:29:24;;;;;;;0.20;0.20;;;;;;;;;;4996042;28;20056;-63
2023/01/29 13:31:53;;;;;;;0.57;0.50;;;;;;;;;;4993897;28;20057;-64
2023/01/29 13:34:23;;;;;;;0.20;0.20;;;;;;;;;;4995574;28;20106;-64
2023/01/29 13:36:51;;;;;;;0.20;0.20;;;;;;;;;;4997149;28;20038;-65
2023/01/29 13:39:21;;;;;;;0.20;0.20;;;;;;;;;;5012557;28;20061;-65
2023/01/29 13:41:47;;;;;;;0.20;0.20;;;;;;;;;;5003619;28;20045;-65
2023/01/29 13:44:20;;;;;;;0.20;0.20;;;;;;;;;;4998694;28;20424;-61
2023/01/29 13:46:53;;;;;;;0.45;0.40;;;;;;;;;;4999402;28;20080;-64
2023/01/29 13:49:19;;;;;;;;;;;;;;;;;;4997934;28;20368;-68
2023/01/29 13:51:46;;;;;;;0.20;0.20;;;;;;;;;;5007349;28;19978;-63
2023/01/29 13:54:18;;;;;;;0.20;0.20;;;;;;;;;;5012463;28;20049;-64
2023/01/29 13:56:58;;;;;;;0.20;0.20;;;;;;;;;;4997332;28;20049;-61
2023/01/29 13:59:45;;;;;;;0.50;0.30;;;;;;;;;;5011440;28;20048;-63
2023/01/29 14:02:25;;;;;;;0.20;0.20;;;;;;;;;;4998503;28;20121;-63
2023/01/29 14:05:12;;;;;;;0.40;0.28;;;;;;;;;;4999135;28;20038;-63
2023/01/29 14:07:49;;;;;;;0.28;0.28;;;;;;;;;;5005680;28;20050;-65
2023/01/29 14:10:17;;;;;;;0.20;0.20;;;;;;;;;;4992767;28;20049;-63
2023/01/29 14:12:44;;;;;;;0.47;0.32;;;;;;;;;;4982623;28;20396;-61
2023/01/29 14:15:15;;;;;;;0.20;0.20;;;;;;;;;;4984575;28;20225;-63
2023/01/29 14:17:58;;;;;;;0.20;0.20;;;;;;;;;;4977442;28;20049;-61
2023/01/29 14:20:45;;;;;;;6.53;2.15;;;;;;;;;;4980062;28;20034;-61
2023/01/29 14:23:35;;;;;;;0.20;0.20;;;;;;;;;;4973409;28;20050;-62
2023/01/29 14:26:03;;;;;;;0.20;0.20;;;;;;;;;;4989102;28;20031;-62
2023/01/29 14:28:32;;;;;;;0.35;0.30;;;;;;;;;;4962713;28;20703;-65
2023/01/29 14:31:00;;;;;;;0.20;0.20;;;;;;;;;;4991845;28;20047;-62
2023/01/29 14:33:31;;;;;;;0.25;0.25;;;;;;;;;;4986311;28;20042;-62
2023/01/29 14:35:58;;;;;;;0.30;0.30;;;;;;;;;;4961905;28;20080;-63
2023/01/29 14:38:26;;;;;;;1.75;0.73;;;;;;;;;;4988207;28;20042;-65
2023/01/29 14:41:02;;;;;;;0.47;0.30;;;;;;;;;;4984243;28;20419;-62
2023/01/29 14:43:49;;;;;;;0.20;0.20;;;;;;;;;;4975999;28;20047;-63
2023/01/29 14:46:37;;;;;;;0.20;0.20;;;;;;;;;;4982600;28;20042;-62
2023/01/29 14:49:03;;;;;;;0.30;0.30;;;;;;;;;;4991374;28;20038;-62
2023/01/29 14:51:37;;;;;;;0.20;0.20;;;;;;;;;;4987241;28;20161;-61
2023/01/29 14:54:15;;;;;;;0.30;0.30;;;;;;;;;;4971189;28;20127;-64
2023/01/29 14:56:58;;;;;;;0.20;0.20;;;;;;;;;;4991748;28;20874;-66
2023/01/29 14:59:39;;;;;;;0.30;0.30;;;;;;;;;;4992137;28;20613;-64
2023/01/29 15:02:26;;;;;;;0.30;0.30;;;;;;;;;;4992961;28;20038;-64
2023/01/29 15:04:55;;;;;;;0.35;0.20;;;;;;;;;;4983205;28;20062;-64
2023/01/29 15:07:31;;;;;;;0.28;0.22;;;;;;;;;;4977099;28;20046;-67
2023/01/29 15:10:25;;;;;;;0.20;0.20;;;;;;;;;;4951694;28;20047;-63
2023/01/29 15:13:01;;;;;;;0.20;0.20;;;;;;;;;;4960294;28;20035;-61
2023/01/29 15:15:58;;;;;;;0.30;0.30;;;;;;;;;;4959822;28;20650;-62
2023/01/29 15:18:41;;;;;;;0.30;0.30;;;;;;;;;;4843809;29;20053;-63
2023/01/29 15:21:12;;;;;;;0.35;0.30;;;;;;;;;;4880611;29;20063;-66
2023/01/29 15:23:39;;;;;;;0.20;0.20;;;;;;;;;;4878779;29;20052;-62
2023/01/29 15:26:07;;;;;;;0.20;0.20;;;;;;;;;;4897400;29;20045;-62
2023/01/29 15:28:35;;;;;;;0.20;0.20;;;;;;;;;;4900207;29;20060;-63
2023/01/29 15:31:05;;;;;;;0.60;0.60;;;;;;;;;;4924985;29;20044;-61
2023/01/29 15:33:33;;;;;;;0.20;0.20;;;;;;;;;;4928932;29;20320;-65